sensor_id;sensor_type;location;lat;lon;timestamp;temperature;humidity
60717;DHT22;46566;52.700;6.192;2024-02-16T00:00:55;11.40;99.90
60717;DHT22;46566;52.700;6.192;2024-02-16T00:03:22;11.40;99.90
60717;DHT22;46566;52.700;6.192;2024-02-16T00:05:48;11.40;99.90
60717;DHT22;46566;52.700;6.192;2024-02-16T00:08:18;11.40;99.90
60717;DHT22;46566;52.700;6.192;2024-02-16T00:10:44;11.40;99.90
60717;DHT22;46566;52.700;6.192;2024-02-16T00:13:10;11.50;99.90
60717;DHT22;46566;52.700;6.192;2024-02-16T00:15:35;11.50;99.90
60717;DHT22;46566;52.700;6.192;2024-02-16T00:18:01;11.50;99.90
60717;DHT22;46566;52.700;6.192;2024-02-16T00:20:28;11.50;99.90
60717;DHT22;46566;52.700;6.192;2024-02-16T00:22:54;11.50;99.90
60717;DHT22;46566;52.700;6.192;2024-02-16T00:25:20;11.50;99.90
60717;DHT22;46566;52.700;6.192;2024-02-16T00:27:46;11.50;99.90
60717;DHT22;46566;52.700;6.192;2024-02-16T00:30:13;11.50;99.90
60717;DHT22;46566;52.700;6.192;2024-02-16T00:32:41;11.40;99.90
60717;DHT22;46566;52.700;6.192;2024-02-16T00:35:07;11.40;99.90
60717;DHT22;46566;52.700;6.192;2024-02-16T00:37:32;11.40;99.90
60717;DHT22;46566;52.700;6.192;2024-02-16T00:39:58;11.30;99.90
60717;DHT22;46566;52.700;6.192;2024-02-16T00:42:24;11.30;99.90
60717;DHT22;46566;52.700;6.192;2024-02-16T00:44:52;11.30;99.90
60717;DHT22;46566;52.700;6.192;2024-02-16T00:47:17;11.30;99.90
60717;DHT22;46566;52.700;6.192;2024-02-16T00:49:43;11.30;99.90
60717;DHT22;46566;52.700;6.192;2024-02-16T00:52:09;11.30;99.90
60717;DHT22;46566;52.700;6.192;2024-02-16T00:54:36;11.20;99.90
60717;DHT22;46566;52.700;6.192;2024-02-16T00:57:02;11.30;99.90
60717;DHT22;46566;52.700;6.192;2024-02-16T00:59:29;11.30;99.90
60717;DHT22;46566;52.700;6.192;2024-02-16T01:01:54;11.30;99.90
60717;DHT22;46566;52.700;6.192;2024-02-16T01:04:20;11.30;99.90
60717;DHT22;46566;52.700;6.192;2024-02-16T01:06:46;11.30;99.90
60717;DHT22;46566;52.700;6.192;2024-02-16T01:09:12;11.30;99.90
60717;DHT22;46566;52.700;6.192;2024-02-16T01:11:42;11.30;99.90
60717;DHT22;46566;52.700;6.192;2024-02-16T01:14:08;11.20;99.90
60717;DHT22;46566;52.700;6.192;2024-02-16T01:16:34;11.20;99.90
60717;DHT22;46566;52.700;6.192;2024-02-16T01:19:01;11.20;99.90
60717;DHT22;46566;52.700;6.192;2024-02-16T01:21:27;11.20;99.90
60717;DHT22;46566;52.700;6.192;2024-02-16T01:23:53;11.20;99.90
60717;DHT22;46566;52.700;6.192;2024-02-16T01:26:18;11.30;99.90
60717;DHT22;46566;52.700;6.192;2024-02-16T01:28:44;11.20;99.90
60717;DHT22;46566;52.700;6.192;2024-02-16T01:31:11;11.20;99.90
60717;DHT22;46566;52.700;6.192;2024-02-16T01:33:37;11.20;99.90
60717;DHT22;46566;52.700;6.192;2024-02-16T01:36:03;11.20;99.90
60717;DHT22;46566;52.700;6.192;2024-02-16T01:38:29;11.20;99.90
60717;DHT22;46566;52.700;6.192;2024-02-16T01:40:55;11.20;99.90
60717;DHT22;46566;52.700;6.192;2024-02-16T01:43:21;11.20;99.90
60717;DHT22;46566;52.700;6.192;2024-02-16T01:45:47;11.20;99.90
60717;DHT22;46566;52.700;6.192;2024-02-16T01:48:14;11.20;99.90
60717;DHT22;46566;52.700;6.192;2024-02-16T01:50:43;11.20;99.90
60717;DHT22;46566;52.700;6.192;2024-02-16T01:53:11;11.20;99.90
60717;DHT22;46566;52.700;6.192;2024-02-16T01:55:38;11.20;99.90
60717;DHT22;46566;52.700;6.192;2024-02-16T01:58:04;11.20;99.90
60717;DHT22;46566;52.700;6.192;2024-02-16T02:00:30;11.20;99.90
60717;DHT22;46566;52.700;6.192;2024-02-16T02:02:56;11.20;99.90
60717;DHT22;46566;52.700;6.192;2024-02-16T02:05:23;11.10;99.90
60717;DHT22;46566;52.700;6.192;2024-02-16T02:07:49;11.10;99.90
60717;DHT22;46566;52.700;6.192;2024-02-16T02:10:14;11.10;99.90
60717;DHT22;46566;52.700;6.192;2024-02-16T02:12:41;11.10;99.90
60717;DHT22;46566;52.700;6.192;2024-02-16T02:15:08;11.10;99.90
60717;DHT22;46566;52.700;6.192;2024-02-16T02:17:35;11.00;99.90
60717;DHT22;46566;52.700;6.192;2024-02-16T02:20:02;11.00;99.90
60717;DHT22;46566;52.700;6.192;2024-02-16T02:22:29;11.00;99.90
60717;DHT22;46566;52.700;6.192;2024-02-16T02:24:55;11.00;99.90
60717;DHT22;46566;52.700;6.192;2024-02-16T02:27:21;11.00;99.90
60717;DHT22;46566;52.700;6.192;2024-02-16T02:29:47;11.00;99.90
60717;DHT22;46566;52.700;6.192;2024-02-16T02:32:13;11.00;99.90
60717;DHT22;46566;52.700;6.192;2024-02-16T02:34:39;11.00;99.90
60717;DHT22;46566;52.700;6.192;2024-02-16T02:37:05;11.00;99.90
60717;DHT22;46566;52.700;6.192;2024-02-16T02:39:32;11.00;99.90
60717;DHT22;46566;52.700;6.192;2024-02-16T02:41:58;10.90;99.90
60717;DHT22;46566;52.700;6.192;2024-02-16T02:44:25;10.90;99.90
60717;DHT22;46566;52.700;6.192;2024-02-16T02:46:52;10.90;99.90
60717;DHT22;46566;52.700;6.192;2024-02-16T02:49:18;10.90;99.90
60717;DHT22;46566;52.700;6.192;2024-02-16T02:51:44;10.90;99.90
60717;DHT22;46566;52.700;6.192;2024-02-16T02:54:10;10.90;99.90
60717;DHT22;46566;52.700;6.192;2024-02-16T02:56:35;10.90;99.90
60717;DHT22;46566;52.700;6.192;2024-02-16T02:59:02;10.90;99.90
60717;DHT22;46566;52.700;6.192;2024-02-16T03:01:28;10.90;99.90
60717;DHT22;46566;52.700;6.192;2024-02-16T03:03:53;10.90;99.90
60717;DHT22;46566;52.700;6.192;2024-02-16T03:06:20;10.90;99.90
60717;DHT22;46566;52.700;6.192;2024-02-16T03:08:46;10.90;99.90
60717;DHT22;46566;52.700;6.192;2024-02-16T03:11:12;10.80;99.90
60717;DHT22;46566;52.700;6.192;2024-02-16T03:13:37;10.90;99.90
60717;DHT22;46566;52.700;6.192;2024-02-16T03:16:03;10.80;99.90
60717;DHT22;46566;52.700;6.192;2024-02-16T03:18:30;10.80;99.90
60717;DHT22;46566;52.700;6.192;2024-02-16T03:20:56;10.80;99.90
60717;DHT22;46566;52.700;6.192;2024-02-16T03:23:22;10.80;99.90
60717;DHT22;46566;52.700;6.192;2024-02-16T03:25:48;10.80;99.90
60717;DHT22;46566;52.700;6.192;2024-02-16T03:28:14;10.80;99.90
60717;DHT22;46566;52.700;6.192;2024-02-16T03:30:41;10.80;99.90
60717;DHT22;46566;52.700;6.192;2024-02-16T03:33:08;10.80;99.90
60717;DHT22;46566;52.700;6.192;2024-02-16T03:35:34;10.80;99.90
60717;DHT22;46566;52.700;6.192;2024-02-16T03:38:00;10.80;99.90
60717;DHT22;46566;52.700;6.192;2024-02-16T03:40:26;10.80;99.90
60717;DHT22;46566;52.700;6.192;2024-02-16T03:42:52;10.80;99.90
60717;DHT22;46566;52.700;6.192;2024-02-16T03:45:18;10.80;99.90
60717;DHT22;46566;52.700;6.192;2024-02-16T03:47:44;10.80;99.90
60717;DHT22;46566;52.700;6.192;2024-02-16T03:50:10;10.80;99.90
60717;DHT22;46566;52.700;6.192;2024-02-16T03:52:37;10.80;99.90
60717;DHT22;46566;52.700;6.192;2024-02-16T03:55:03;10.80;99.90
60717;DHT22;46566;52.700;6.192;2024-02-16T03:57:30;10.80;99.90
60717;DHT22;46566;52.700;6.192;2024-02-16T03:59:56;10.80;99.90
60717;DHT22;46566;52.700;6.192;2024-02-16T04:02:22;10.80;99.90
60717;DHT22;46566;52.700;6.192;2024-02-16T04:04:48;10.80;99.90
60717;DHT22;46566;52.700;6.192;2024-02-16T04:07:14;10.80;99.90
60717;DHT22;46566;52.700;6.192;2024-02-16T04:09:40;10.80;99.90
60717;DHT22;46566;52.700;6.192;2024-02-16T04:12:06;10.80;99.90
60717;DHT22;46566;52.700;6.192;2024-02-16T04:14:31;10.80;99.90
60717;DHT22;46566;52.700;6.192;2024-02-16T04:16:59;10.70;99.90
60717;DHT22;46566;52.700;6.192;2024-02-16T04:19:28;10.70;99.90
60717;DHT22;46566;52.700;6.192;2024-02-16T04:21:55;10.70;99.90
60717;DHT22;46566;52.700;6.192;2024-02-16T04:24:21;10.70;99.90
60717;DHT22;46566;52.700;6.192;2024-02-16T04:26:47;10.80;99.90
60717;DHT22;46566;52.700;6.192;2024-02-16T04:29:12;10.70;99.90
60717;DHT22;46566;52.700;6.192;2024-02-16T04:31:41;10.70;99.90
60717;DHT22;46566;52.700;6.192;2024-02-16T04:34:08;10.70;99.90
60717;DHT22;46566;52.700;6.192;2024-02-16T04:36:34;10.70;99.90
60717;DHT22;46566;52.700;6.192;2024-02-16T04:39:01;10.70;99.90
60717;DHT22;46566;52.700;6.192;2024-02-16T04:41:47;10.70;99.90
60717;DHT22;46566;52.700;6.192;2024-02-16T04:44:52;10.60;99.90
60717;DHT22;46566;52.700;6.192;2024-02-16T04:48:02;10.70;99.90
60717;DHT22;46566;52.700;6.192;2024-02-16T04:51:04;10.60;99.90
60717;DHT22;46566;52.700;6.192;2024-02-16T04:54:10;10.60;99.90
60717;DHT22;46566;52.700;6.192;2024-02-16T04:57:15;10.60;99.90
60717;DHT22;46566;52.700;6.192;2024-02-16T05:00:21;10.60;99.90
60717;DHT22;46566;52.700;6.192;2024-02-16T05:03:27;10.60;99.90
60717;DHT22;46566;52.700;6.192;2024-02-16T05:06:32;10.60;99.90
60717;DHT22;46566;52.700;6.192;2024-02-16T05:09:42;10.60;99.90
60717;DHT22;46566;52.700;6.192;2024-02-16T05:12:48;10.70;99.90
60717;DHT22;46566;52.700;6.192;2024-02-16T05:15:54;10.70;99.90
60717;DHT22;46566;52.700;6.192;2024-02-16T05:18:59;10.70;99.90
60717;DHT22;46566;52.700;6.192;2024-02-16T05:22:06;10.70;99.90
60717;DHT22;46566;52.700;6.192;2024-02-16T05:25:12;10.70;99.90
60717;DHT22;46566;52.700;6.192;2024-02-16T05:28:17;10.80;99.90
60717;DHT22;46566;52.700;6.192;2024-02-16T05:31:35;10.80;99.90
60717;DHT22;46566;52.700;6.192;2024-02-16T05:34:40;10.80;99.90
60717;DHT22;46566;52.700;6.192;2024-02-16T05:37:50;10.80;99.90
60717;DHT22;46566;52.700;6.192;2024-02-16T05:41:17;10.90;99.90
60717;DHT22;46566;52.700;6.192;2024-02-16T05:44:24;10.90;99.90
60717;DHT22;46566;52.700;6.192;2024-02-16T05:47:29;10.90;99.90
60717;DHT22;46566;52.700;6.192;2024-02-16T05:50:35;10.90;99.90
60717;DHT22;46566;52.700;6.192;2024-02-16T05:53:41;10.90;99.90
60717;DHT22;46566;52.700;6.192;2024-02-16T05:56:46;10.90;99.90
60717;DHT22;46566;52.700;6.192;2024-02-16T05:59:54;10.90;99.90
60717;DHT22;46566;52.700;6.192;2024-02-16T06:03:00;10.90;99.90
60717;DHT22;46566;52.700;6.192;2024-02-16T06:06:06;10.90;99.90
60717;DHT22;46566;52.700;6.192;2024-02-16T06:09:11;10.90;99.90
60717;DHT22;46566;52.700;6.192;2024-02-16T06:12:20;10.90;99.90
60717;DHT22;46566;52.700;6.192;2024-02-16T06:15:26;10.90;99.90
60717;DHT22;46566;52.700;6.192;2024-02-16T06:18:32;10.80;99.90
60717;DHT22;46566;52.700;6.192;2024-02-16T06:21:38;10.80;99.90
60717;DHT22;46566;52.700;6.192;2024-02-16T06:24:44;10.80;99.90
60717;DHT22;46566;52.700;6.192;2024-02-16T06:27:50;10.80;99.90
60717;DHT22;46566;52.700;6.192;2024-02-16T06:30:56;10.80;99.90
60717;DHT22;46566;52.700;6.192;2024-02-16T06:34:01;10.70;99.90
60717;DHT22;46566;52.700;6.192;2024-02-16T06:36:28;10.70;99.90
60717;DHT22;46566;52.700;6.192;2024-02-16T06:38:54;10.70;99.90
60717;DHT22;46566;52.700;6.192;2024-02-16T06:41:20;10.80;99.90
60717;DHT22;46566;52.700;6.192;2024-02-16T06:43:45;10.70;99.90
60717;DHT22;46566;52.700;6.192;2024-02-16T06:46:11;10.70;99.90
60717;DHT22;46566;52.700;6.192;2024-02-16T06:48:37;10.70;99.90
60717;DHT22;46566;52.700;6.192;2024-02-16T06:51:03;10.70;99.90
60717;DHT22;46566;52.700;6.192;2024-02-16T06:53:28;10.70;99.90
60717;DHT22;46566;52.700;6.192;2024-02-16T06:55:54;10.70;99.90
60717;DHT22;46566;52.700;6.192;2024-02-16T06:58:20;10.70;99.90
60717;DHT22;46566;52.700;6.192;2024-02-16T07:00:46;10.70;99.90
60717;DHT22;46566;52.700;6.192;2024-02-16T07:03:12;10.70;99.90
60717;DHT22;46566;52.700;6.192;2024-02-16T07:05:38;10.70;99.90
60717;DHT22;46566;52.700;6.192;2024-02-16T07:08:06;10.70;99.90
60717;DHT22;46566;52.700;6.192;2024-02-16T07:10:33;10.70;99.90
60717;DHT22;46566;52.700;6.192;2024-02-16T07:12:59;10.70;99.90
60717;DHT22;46566;52.700;6.192;2024-02-16T07:15:25;10.70;99.90
60717;DHT22;46566;52.700;6.192;2024-02-16T07:17:53;10.60;99.90
60717;DHT22;46566;52.700;6.192;2024-02-16T07:20:19;10.60;99.90
60717;DHT22;46566;52.700;6.192;2024-02-16T07:22:44;10.60;99.90
60717;DHT22;46566;52.700;6.192;2024-02-16T07:25:13;10.60;99.90
60717;DHT22;46566;52.700;6.192;2024-02-16T07:27:39;10.70;99.90
60717;DHT22;46566;52.700;6.192;2024-02-16T07:30:05;10.70;99.90
60717;DHT22;46566;52.700;6.192;2024-02-16T07:32:31;10.70;99.90
60717;DHT22;46566;52.700;6.192;2024-02-16T07:34:57;10.70;99.90
60717;DHT22;46566;52.700;6.192;2024-02-16T07:37:23;10.70;99.90
60717;DHT22;46566;52.700;6.192;2024-02-16T07:39:48;10.70;99.90
60717;DHT22;46566;52.700;6.192;2024-02-16T07:42:14;10.80;99.90
60717;DHT22;46566;52.700;6.192;2024-02-16T07:44:40;10.80;99.90
60717;DHT22;46566;52.700;6.192;2024-02-16T07:47:06;10.80;99.90
60717;DHT22;46566;52.700;6.192;2024-02-16T07:49:32;10.80;99.90
60717;DHT22;46566;52.700;6.192;2024-02-16T07:51:57;10.90;99.90
60717;DHT22;46566;52.700;6.192;2024-02-16T07:54:23;10.90;99.90
60717;DHT22;46566;52.700;6.192;2024-02-16T07:56:49;10.90;99.90
60717;DHT22;46566;52.700;6.192;2024-02-16T07:59:15;10.90;99.90
60717;DHT22;46566;52.700;6.192;2024-02-16T08:01:41;11.00;99.90
60717;DHT22;46566;52.700;6.192;2024-02-16T08:04:10;11.10;99.90
60717;DHT22;46566;52.700;6.192;2024-02-16T08:06:35;11.00;99.90
60717;DHT22;46566;52.700;6.192;2024-02-16T08:09:01;11.00;99.90
60717;DHT22;46566;52.700;6.192;2024-02-16T08:11:27;11.00;99.90
60717;DHT22;46566;52.700;6.192;2024-02-16T08:13:53;11.10;99.90
60717;DHT22;46566;52.700;6.192;2024-02-16T08:16:21;11.10;99.90
60717;DHT22;46566;52.700;6.192;2024-02-16T08:18:47;11.10;99.90
60717;DHT22;46566;52.700;6.192;2024-02-16T08:21:12;11.10;99.90
60717;DHT22;46566;52.700;6.192;2024-02-16T08:23:38;11.20;99.90
60717;DHT22;46566;52.700;6.192;2024-02-16T08:26:04;11.20;99.90
60717;DHT22;46566;52.700;6.192;2024-02-16T08:28:30;11.20;99.90
60717;DHT22;46566;52.700;6.192;2024-02-16T08:30:55;11.20;99.90
60717;DHT22;46566;52.700;6.192;2024-02-16T08:33:21;11.30;99.90
60717;DHT22;46566;52.700;6.192;2024-02-16T08:35:47;11.30;99.90
60717;DHT22;46566;52.700;6.192;2024-02-16T08:38:12;11.30;99.90
60717;DHT22;46566;52.700;6.192;2024-02-16T08:40:39;11.40;99.90
60717;DHT22;46566;52.700;6.192;2024-02-16T08:43:05;11.40;99.90
60717;DHT22;46566;52.700;6.192;2024-02-16T08:45:33;11.40;99.90
60717;DHT22;46566;52.700;6.192;2024-02-16T08:47:59;11.50;99.90
60717;DHT22;46566;52.700;6.192;2024-02-16T08:50:27;11.50;99.90
60717;DHT22;46566;52.700;6.192;2024-02-16T08:52:53;11.50;99.90
60717;DHT22;46566;52.700;6.192;2024-02-16T08:55:20;11.50;99.90
60717;DHT22;46566;52.700;6.192;2024-02-16T08:57:46;11.50;99.90
60717;DHT22;46566;52.700;6.192;2024-02-16T09:00:12;11.50;99.90
60717;DHT22;46566;52.700;6.192;2024-02-16T09:02:38;11.60;99.90
60717;DHT22;46566;52.700;6.192;2024-02-16T09:05:04;11.60;99.90
60717;DHT22;46566;52.700;6.192;2024-02-16T09:07:31;11.70;99.90
60717;DHT22;46566;52.700;6.192;2024-02-16T09:09:57;11.80;99.90
60717;DHT22;46566;52.700;6.192;2024-02-16T09:12:23;11.90;99.90
60717;DHT22;46566;52.700;6.192;2024-02-16T09:14:48;11.90;99.90
60717;DHT22;46566;52.700;6.192;2024-02-16T09:17:14;12.00;99.90
60717;DHT22;46566;52.700;6.192;2024-02-16T09:19:40;12.10;99.90
60717;DHT22;46566;52.700;6.192;2024-02-16T09:22:06;12.20;99.90
60717;DHT22;46566;52.700;6.192;2024-02-16T09:24:32;12.20;99.90
60717;DHT22;46566;52.700;6.192;2024-02-16T09:26:58;12.30;99.90
60717;DHT22;46566;52.700;6.192;2024-02-16T09:29:29;12.30;99.90
60717;DHT22;46566;52.700;6.192;2024-02-16T09:31:55;12.40;99.90
60717;DHT22;46566;52.700;6.192;2024-02-16T09:34:21;12.50;99.90
60717;DHT22;46566;52.700;6.192;2024-02-16T09:36:47;12.50;99.90
60717;DHT22;46566;52.700;6.192;2024-02-16T09:39:12;12.50;99.90
60717;DHT22;46566;52.700;6.192;2024-02-16T09:41:42;12.50;99.90
60717;DHT22;46566;52.700;6.192;2024-02-16T09:44:08;12.60;99.90
60717;DHT22;46566;52.700;6.192;2024-02-16T09:46:35;12.60;99.90
60717;DHT22;46566;52.700;6.192;2024-02-16T09:49:03;12.70;99.90
60717;DHT22;46566;52.700;6.192;2024-02-16T09:51:30;12.80;99.90
60717;DHT22;46566;52.700;6.192;2024-02-16T09:53:56;12.80;99.90
60717;DHT22;46566;52.700;6.192;2024-02-16T09:56:22;12.90;99.90
60717;DHT22;46566;52.700;6.192;2024-02-16T09:58:51;12.90;99.90
60717;DHT22;46566;52.700;6.192;2024-02-16T10:01:23;12.90;99.90
60717;DHT22;46566;52.700;6.192;2024-02-16T10:03:49;13.00;99.90
60717;DHT22;46566;52.700;6.192;2024-02-16T10:06:16;13.00;99.90
60717;DHT22;46566;52.700;6.192;2024-02-16T10:08:52;13.10;99.90
60717;DHT22;46566;52.700;6.192;2024-02-16T10:11:20;13.10;99.90
60717;DHT22;46566;52.700;6.192;2024-02-16T10:13:57;13.10;99.90
60717;DHT22;46566;52.700;6.192;2024-02-16T10:16:23;13.20;99.90
60717;DHT22;46566;52.700;6.192;2024-02-16T10:18:49;13.20;99.90
60717;DHT22;46566;52.700;6.192;2024-02-16T10:21:27;13.20;99.90
60717;DHT22;46566;52.700;6.192;2024-02-16T10:24:01;13.20;99.90
60717;DHT22;46566;52.700;6.192;2024-02-16T10:26:31;13.10;99.90
60717;DHT22;46566;52.700;6.192;2024-02-16T10:28:57;13.10;99.90
60717;DHT22;46566;52.700;6.192;2024-02-16T10:31:24;13.10;99.90
60717;DHT22;46566;52.700;6.192;2024-02-16T10:34:04;13.00;99.90
60717;DHT22;46566;52.700;6.192;2024-02-16T10:36:36;13.00;99.90
60717;DHT22;46566;52.700;6.192;2024-02-16T10:39:03;13.00;99.90
60717;DHT22;46566;52.700;6.192;2024-02-16T10:41:35;12.90;99.90
60717;DHT22;46566;52.700;6.192;2024-02-16T10:44:02;12.90;99.90
60717;DHT22;46566;52.700;6.192;2024-02-16T10:46:29;12.80;99.90
60717;DHT22;46566;52.700;6.192;2024-02-16T10:48:54;12.80;99.90
60717;DHT22;46566;52.700;6.192;2024-02-16T10:51:34;12.80;99.90
60717;DHT22;46566;52.700;6.192;2024-02-16T10:54:01;12.80;99.90
60717;DHT22;46566;52.700;6.192;2024-02-16T10:56:32;12.70;99.90
60717;DHT22;46566;52.700;6.192;2024-02-16T10:59:07;12.70;99.90
60717;DHT22;46566;52.700;6.192;2024-02-16T11:01:41;12.70;99.90
60717;DHT22;46566;52.700;6.192;2024-02-16T11:04:11;12.70;99.90
60717;DHT22;46566;52.700;6.192;2024-02-16T11:06:54;12.70;99.90
60717;DHT22;46566;52.700;6.192;2024-02-16T11:09:29;12.70;99.90
60717;DHT22;46566;52.700;6.192;2024-02-16T11:11:59;12.60;99.90
60717;DHT22;46566;52.700;6.192;2024-02-16T11:14:40;12.60;99.90
60717;DHT22;46566;52.700;6.192;2024-02-16T11:17:14;12.50;99.90
60717;DHT22;46566;52.700;6.192;2024-02-16T11:19:43;12.50;99.90
60717;DHT22;46566;52.700;6.192;2024-02-16T11:22:09;12.50;99.90
60717;DHT22;46566;52.700;6.192;2024-02-16T11:24:38;12.40;99.90
60717;DHT22;46566;52.700;6.192;2024-02-16T11:27:08;12.40;99.90
60717;DHT22;46566;52.700;6.192;2024-02-16T11:29:36;12.30;99.90
60717;DHT22;46566;52.700;6.192;2024-02-16T11:32:03;12.10;99.90
60717;DHT22;46566;52.700;6.192;2024-02-16T11:34:30;12.10;99.90
60717;DHT22;46566;52.700;6.192;2024-02-16T11:36:57;12.00;99.90
60717;DHT22;46566;52.700;6.192;2024-02-16T11:39:23;12.00;99.90
60717;DHT22;46566;52.700;6.192;2024-02-16T11:42:09;11.90;99.90
60717;DHT22;46566;52.700;6.192;2024-02-16T11:44:39;11.80;99.90
60717;DHT22;46566;52.700;6.192;2024-02-16T11:47:09;11.90;99.90
60717;DHT22;46566;52.700;6.192;2024-02-16T11:49:38;11.80;99.90
60717;DHT22;46566;52.700;6.192;2024-02-16T11:52:10;11.80;99.90
60717;DHT22;46566;52.700;6.192;2024-02-16T11:54:36;11.70;99.90
60717;DHT22;46566;52.700;6.192;2024-02-16T11:57:03;11.60;99.90
60717;DHT22;46566;52.700;6.192;2024-02-16T11:59:29;11.50;99.90
60717;DHT22;46566;52.700;6.192;2024-02-16T12:01:59;11.60;99.90
60717;DHT22;46566;52.700;6.192;2024-02-16T12:04:27;11.60;99.90
60717;DHT22;46566;52.700;6.192;2024-02-16T12:07:01;11.40;99.90
60717;DHT22;46566;52.700;6.192;2024-02-16T12:09:27;11.40;99.90
60717;DHT22;46566;52.700;6.192;2024-02-16T12:11:54;11.40;99.90
60717;DHT22;46566;52.700;6.192;2024-02-16T12:14:24;11.50;99.90
60717;DHT22;46566;52.700;6.192;2024-02-16T12:16:51;11.50;99.90
60717;DHT22;46566;52.700;6.192;2024-02-16T12:19:18;11.40;99.90
60717;DHT22;46566;52.700;6.192;2024-02-16T12:21:49;11.40;99.90
60717;DHT22;46566;52.700;6.192;2024-02-16T12:24:15;11.30;99.90
60717;DHT22;46566;52.700;6.192;2024-02-16T12:26:40;11.40;99.90
60717;DHT22;46566;52.700;6.192;2024-02-16T12:29:06;11.40;99.90
60717;DHT22;46566;52.700;6.192;2024-02-16T12:31:34;11.30;99.90
60717;DHT22;46566;52.700;6.192;2024-02-16T12:34:03;11.30;99.90
60717;DHT22;46566;52.700;6.192;2024-02-16T12:36:31;11.30;99.90
60717;DHT22;46566;52.700;6.192;2024-02-16T12:38:56;11.30;99.90
60717;DHT22;46566;52.700;6.192;2024-02-16T12:41:22;11.40;99.90
60717;DHT22;46566;52.700;6.192;2024-02-16T12:43:48;11.30;99.90
60717;DHT22;46566;52.700;6.192;2024-02-16T12:46:13;11.30;99.90
60717;DHT22;46566;52.700;6.192;2024-02-16T12:48:39;11.40;99.90
60717;DHT22;46566;52.700;6.192;2024-02-16T12:51:05;11.30;99.90
60717;DHT22;46566;52.700;6.192;2024-02-16T12:53:31;11.20;99.90
60717;DHT22;46566;52.700;6.192;2024-02-16T12:56:09;11.40;99.90
60717;DHT22;46566;52.700;6.192;2024-02-16T12:58:36;11.20;99.90
60717;DHT22;46566;52.700;6.192;2024-02-16T13:01:06;11.30;99.90
60717;DHT22;46566;52.700;6.192;2024-02-16T13:03:34;11.20;99.90
60717;DHT22;46566;52.700;6.192;2024-02-16T13:06:00;11.30;99.90
60717;DHT22;46566;52.700;6.192;2024-02-16T13:08:27;11.10;99.90
60717;DHT22;46566;52.700;6.192;2024-02-16T13:10:53;11.10;99.90
60717;DHT22;46566;52.700;6.192;2024-02-16T13:13:19;11.20;99.90
60717;DHT22;46566;52.700;6.192;2024-02-16T13:15:46;11.20;99.90
60717;DHT22;46566;52.700;6.192;2024-02-16T13:18:13;11.20;99.90
60717;DHT22;46566;52.700;6.192;2024-02-16T13:20:39;11.30;99.90
60717;DHT22;46566;52.700;6.192;2024-02-16T13:23:05;11.20;99.90
60717;DHT22;46566;52.700;6.192;2024-02-16T13:25:31;11.40;99.90
60717;DHT22;46566;52.700;6.192;2024-02-16T13:27:57;11.40;99.90
60717;DHT22;46566;52.700;6.192;2024-02-16T13:30:23;11.30;99.90
60717;DHT22;46566;52.700;6.192;2024-02-16T13:32:48;11.30;99.90
60717;DHT22;46566;52.700;6.192;2024-02-16T13:35:14;11.30;99.90
60717;DHT22;46566;52.700;6.192;2024-02-16T13:37:40;11.40;99.90
60717;DHT22;46566;52.700;6.192;2024-02-16T13:40:07;11.40;99.90
60717;DHT22;46566;52.700;6.192;2024-02-16T13:42:38;11.30;99.90
60717;DHT22;46566;52.700;6.192;2024-02-16T13:45:04;11.30;99.90
60717;DHT22;46566;52.700;6.192;2024-02-16T13:47:30;11.30;99.90
60717;DHT22;46566;52.700;6.192;2024-02-16T13:49:56;11.30;99.90
60717;DHT22;46566;52.700;6.192;2024-02-16T13:52:24;11.20;99.90
60717;DHT22;46566;52.700;6.192;2024-02-16T13:54:50;11.30;99.90
60717;DHT22;46566;52.700;6.192;2024-02-16T13:57:15;11.20;99.90
60717;DHT22;46566;52.700;6.192;2024-02-16T13:59:42;11.30;99.90
60717;DHT22;46566;52.700;6.192;2024-02-16T14:02:09;11.30;99.90
60717;DHT22;46566;52.700;6.192;2024-02-16T14:04:35;11.30;99.90
60717;DHT22;46566;52.700;6.192;2024-02-16T14:07:01;11.30;99.90
60717;DHT22;46566;52.700;6.192;2024-02-16T14:09:27;11.30;99.90
60717;DHT22;46566;52.700;6.192;2024-02-16T14:11:53;11.30;99.90
60717;DHT22;46566;52.700;6.192;2024-02-16T14:14:21;11.30;99.90
60717;DHT22;46566;52.700;6.192;2024-02-16T14:16:47;11.30;99.90
60717;DHT22;46566;52.700;6.192;2024-02-16T14:19:13;11.30;99.90
60717;DHT22;46566;52.700;6.192;2024-02-16T14:21:38;11.40;99.90
60717;DHT22;46566;52.700;6.192;2024-02-16T14:24:04;11.30;99.90
60717;DHT22;46566;52.700;6.192;2024-02-16T14:26:30;11.30;99.90
60717;DHT22;46566;52.700;6.192;2024-02-16T14:28:56;11.30;99.90
60717;DHT22;46566;52.700;6.192;2024-02-16T14:31:22;11.30;99.90
60717;DHT22;46566;52.700;6.192;2024-02-16T14:33:48;11.30;99.90
60717;DHT22;46566;52.700;6.192;2024-02-16T14:36:15;11.30;99.90
60717;DHT22;46566;52.700;6.192;2024-02-16T14:38:40;11.40;99.90
60717;DHT22;46566;52.700;6.192;2024-02-16T14:41:06;11.30;99.90
60717;DHT22;46566;52.700;6.192;2024-02-16T14:43:32;11.20;99.90
60717;DHT22;46566;52.700;6.192;2024-02-16T14:45:59;11.30;99.90
60717;DHT22;46566;52.700;6.192;2024-02-16T14:48:25;11.20;99.90
60717;DHT22;46566;52.700;6.192;2024-02-16T14:50:54;11.30;99.90
60717;DHT22;46566;52.700;6.192;2024-02-16T14:53:20;11.20;99.90
60717;DHT22;46566;52.700;6.192;2024-02-16T14:55:47;11.20;99.90
60717;DHT22;46566;52.700;6.192;2024-02-16T14:58:12;11.20;99.90
60717;DHT22;46566;52.700;6.192;2024-02-16T15:00:38;11.20;99.90
60717;DHT22;46566;52.700;6.192;2024-02-16T15:03:04;11.10;99.90
60717;DHT22;46566;52.700;6.192;2024-02-16T15:05:30;11.20;99.90
60717;DHT22;46566;52.700;6.192;2024-02-16T15:07:56;11.20;99.90
60717;DHT22;46566;52.700;6.192;2024-02-16T15:10:22;11.10;99.90
60717;DHT22;46566;52.700;6.192;2024-02-16T15:12:48;11.10;99.90
60717;DHT22;46566;52.700;6.192;2024-02-16T15:15:14;11.10;99.90
60717;DHT22;46566;52.700;6.192;2024-02-16T15:17:40;11.00;99.90
60717;DHT22;46566;52.700;6.192;2024-02-16T15:20:07;11.10;99.90
60717;DHT22;46566;52.700;6.192;2024-02-16T15:22:33;11.10;99.90
60717;DHT22;46566;52.700;6.192;2024-02-16T15:24:59;11.10;99.90
60717;DHT22;46566;52.700;6.192;2024-02-16T15:27:25;11.00;99.90
60717;DHT22;46566;52.700;6.192;2024-02-16T15:29:51;11.00;99.90
60717;DHT22;46566;52.700;6.192;2024-02-16T15:32:17;10.90;99.90
60717;DHT22;46566;52.700;6.192;2024-02-16T15:34:43;10.90;99.90
60717;DHT22;46566;52.700;6.192;2024-02-16T15:37:12;10.90;99.90
60717;DHT22;46566;52.700;6.192;2024-02-16T15:39:38;11.00;99.90
60717;DHT22;46566;52.700;6.192;2024-02-16T15:42:04;10.90;99.90
60717;DHT22;46566;52.700;6.192;2024-02-16T15:44:30;10.90;99.90
60717;DHT22;46566;52.700;6.192;2024-02-16T15:46:56;11.00;99.90
60717;DHT22;46566;52.700;6.192;2024-02-16T15:49:22;11.00;99.90
60717;DHT22;46566;52.700;6.192;2024-02-16T15:51:48;10.90;99.90